ENLK

Leknes Airport

Leknes, Norway
METAR ENLK 221750Z 28002KT 9999 SCT003 SCT006 BKN009 04/04 Q1012
Observed Flight Rules
Apr-22 @ 17:50 UTC (23 minutes ago) Instrument Flight Rules
Wind Visibility Clouds
280° at 2 knots 10,000+ meters
  • Scattered at 300' AGL
  • Scattered at 600' AGL
  • Broken at 900' AGL
Temperatures Readings
Current 4°C / 39°F
Dewpoint 4°C / 39°F
Humidity 100%
Altimeter 29.88" Hg
Pressure 1012 hPa
Elevation 26
METAR ENLK 221750Z 28002KT 9999 SCT003 SCT006 BKN009 04/04 Q1012
Observed Flight Rules
Apr-22 @ 17:50 UTC
(23 minutes ago)
IFR
Wind Visibility
280° at 2 knots 10,000+ meters
Clouds
  • Scattered at 300' AGL
  • Scattered at 600' AGL
  • Broken at 900' AGL
Temperature Dewpoint
4°C / 39°F 4°C / 39°F
Humidity Altimeter Pressure
100% 29.88" Hg 1012 hPa